Time;durP1;ratioP1;P1;durP2;ratioP2;P2;SDS_P1;SDS_P2;PMS_P1;PMS_P2;Temp;Humidity;BMP_temperature;BMP_pressure;BME280_temperature;BME280_humidity;BME280_pressure;Samples;Min_cycle;Max_cycle;Signal;HPM_P1;HPM_P2
2022/05/27 00:00:45;;;;;;;3.86;1.94;;;;;;;;;;347700;152;858494;-63
2022/05/27 00:01:47;;;;;;;3.17;1.75;;;;;;;;;;346992;152;864537;-63
2022/05/27 00:02:49;;;;;;;6.29;1.93;;;;;;;;;;346330;152;857325;-63
2022/05/27 00:03:51;;;;;;;4.81;1.81;;;;;;;;;;345798;152;857307;-63
2022/05/27 00:04:52;;;;;;;1.91;1.52;;;;;;;;;;345053;152;857312;-63
2022/05/27 00:05:54;;;;;;;2.13;1.44;;;;;;;;;;345358;152;857252;-63
2022/05/27 00:06:55;;;;;;;2.01;1.51;;;;;;;;;;348123;152;859119;-62
2022/05/27 00:07:57;;;;;;;5.33;1.74;;;;;;;;;;347178;152;865932;-63
2022/05/27 00:08:58;;;;;;;2.23;1.70;;;;;;;;;;346597;152;857844;-62
2022/05/27 00:10:00;;;;;;;5.77;1.81;;;;;;;;;;348945;152;856330;-63
2022/05/27 00:11:03;;;;;;;4.74;1.61;;;;;;;;;;346189;152;860340;-63
2022/05/27 00:12:05;;;;;;;3.96;1.75;;;;;;;;;;348015;152;859024;-64
2022/05/27 00:13:07;;;;;;;7.25;1.76;;;;;;;;;;347568;152;857257;-63
2022/05/27 00:14:08;;;;;;;2.21;1.57;;;;;;;;;;349631;152;865135;-64
2022/05/27 00:15:10;;;;;;;8.72;1.77;;;;;;;;;;346688;152;857287;-64
2022/05/27 00:16:14;;;;;;;2.62;1.67;;;;;;;;;;347642;152;857824;-64
2022/05/27 00:17:15;;;;;;;4.34;1.74;;;;;;;;;;346885;152;858881;-64
2022/05/27 00:18:17;;;;;;;3.88;1.54;;;;;;;;;;345438;152;857311;-63
2022/05/27 00:19:19;;;;;;;3.79;1.69;;;;;;;;;;348125;152;865772;-63
2022/05/27 00:20:21;;;;;;;4.37;1.42;;;;;;;;;;347301;152;858082;-63
2022/05/27 00:21:22;;;;;;;3.62;1.56;;;;;;;;;;346222;152;858068;-63
2022/05/27 00:22:24;;;;;;;5.17;2.09;;;;;;;;;;346918;152;858908;-63
2022/05/27 00:23:26;;;;;;;3.24;1.69;;;;;;;;;;344965;152;867087;-63
2022/05/27 00:24:27;;;;;;;3.94;1.69;;;;;;;;;;347053;152;865801;-65
2022/05/27 00:25:29;;;;;;;2.90;1.51;;;;;;;;;;347703;152;859610;-63
2022/05/27 00:26:31;;;;;;;1.90;1.46;;;;;;;;;;346865;155;859419;-62
2022/05/27 00:27:33;;;;;;;2.01;1.41;;;;;;;;;;347200;152;865794;-62
2022/05/27 00:28:34;;;;;;;2.96;1.50;;;;;;;;;;347747;152;859034;-63
2022/05/27 00:29:39;;;;;;;5.00;1.75;;;;;;;;;;349736;152;864440;-63
2022/05/27 00:30:41;;;;;;;2.95;1.73;;;;;;;;;;347342;152;857849;-63
2022/05/27 00:31:42;;;;;;;4.54;1.67;;;;;;;;;;348225;152;866246;-65
2022/05/27 00:32:44;;;;;;;4.05;1.52;;;;;;;;;;346677;152;857795;-64
2022/05/27 00:33:46;;;;;;;2.09;1.71;;;;;;;;;;347309;152;857333;-62
2022/05/27 00:34:47;;;;;;;2.76;1.60;;;;;;;;;;347999;152;865403;-64
2022/05/27 00:35:49;;;;;;;3.56;1.56;;;;;;;;;;350732;152;857279;-62
2022/05/27 00:36:50;;;;;;;2.94;1.52;;;;;;;;;;347707;152;857263;-63
2022/05/27 00:37:52;;;;;;;7.14;1.68;;;;;;;;;;347514;152;864564;-63
2022/05/27 00:38:54;;;;;;;5.99;1.60;;;;;;;;;;349172;152;857289;-63
2022/05/27 00:39:56;;;;;;;7.96;1.50;;;;;;;;;;347655;152;857204;-66
2022/05/27 00:40:58;;;;;;;2.40;1.39;;;;;;;;;;347614;152;864768;-63
2022/05/27 00:42:00;;;;;;;2.47;1.49;;;;;;;;;;347136;152;857255;-62
2022/05/27 00:43:02;;;;;;;7.73;1.73;;;;;;;;;;347347;152;864858;-63
2022/05/27 00:44:04;;;;;;;4.16;1.51;;;;;;;;;;344551;152;857328;-63
2022/05/27 00:45:06;;;;;;;2.87;1.72;;;;;;;;;;346234;152;857253;-63
2022/05/27 00:46:13;;;;;;;5.29;1.55;;;;;;;;;;348141;152;859129;-63
2022/05/27 00:47:16;;;;;;;3.33;1.62;;;;;;;;;;347572;152;857299;-64
2022/05/27 00:48:18;;;;;;;7.16;1.47;;;;;;;;;;347408;152;859568;-63
2022/05/27 00:49:21;;;;;;;4.82;1.59;;;;;;;;;;347531;152;858917;-63
2022/05/27 00:50:25;;;;;;;2.83;1.44;;;;;;;;;;346022;152;857168;-64
2022/05/27 00:51:27;;;;;;;2.34;1.54;;;;;;;;;;349260;152;858856;-64
2022/05/27 00:52:30;;;;;;;2.07;1.35;;;;;;;;;;346908;150;866227;-63
2022/05/27 00:53:34;;;;;;;2.47;1.24;;;;;;;;;;344573;152;858064;-62
2022/05/27 00:54:35;;;;;;;4.17;2.04;;;;;;;;;;347830;152;858971;-65
2022/05/27 00:55:38;;;;;;;3.01;1.40;;;;;;;;;;347956;152;857543;-63
2022/05/27 00:56:41;;;;;;;4.06;1.66;;;;;;;;;;346222;152;857312;-64
2022/05/27 00:57:44;;;;;;;3.88;1.73;;;;;;;;;;348795;152;857259;-63
2022/05/27 00:58:47;;;;;;;2.22;1.40;;;;;;;;;;345968;152;857800;-64
2022/05/27 00:59:53;;;;;;;3.33;1.69;;;;;;;;;;349490;152;857295;-65
2022/05/27 01:00:54;;;;;;;5.62;1.54;;;;;;;;;;346289;152;858069;-65
2022/05/27 01:01:57;;;;;;;4.71;1.89;;;;;;;;;;346198;152;857283;-64
2022/05/27 01:02:59;;;;;;;3.92;1.88;;;;;;;;;;346652;152;861026;-64
2022/05/27 01:04:01;;;;;;;3.04;1.42;;;;;;;;;;348439;152;857473;-64
2022/05/27 01:05:03;;;;;;;2.30;1.49;;;;;;;;;;345344;152;857853;-64
2022/05/27 01:06:05;;;;;;;2.69;1.70;;;;;;;;;;346330;152;858824;-64
2022/05/27 01:07:06;;;;;;;1.70;1.59;;;;;;;;;;349811;152;857282;-64
2022/05/27 01:08:08;;;;;;;2.78;1.64;;;;;;;;;;348258;152;857407;-64
2022/05/27 01:09:09;;;;;;;3.71;1.68;;;;;;;;;;347646;152;857343;-65
2022/05/27 01:10:13;;;;;;;2.77;1.37;;;;;;;;;;347398;152;859142;-64
2022/05/27 01:11:29;;;;;;;3.89;1.74;;;;;;;;;;347652;152;857512;-62
2022/05/27 01:12:42;;;;;;;5.48;1.38;;;;;;;;;;348362;149;856631;-64
2022/05/27 01:13:48;;;;;;;4.01;1.76;;;;;;;;;;349146;152;857280;-64
2022/05/27 01:15:01;;;;;;;4.04;1.68;;;;;;;;;;347055;152;858014;-64
2022/05/27 01:16:20;;;;;;;2.45;1.36;;;;;;;;;;347618;152;857879;-64
2022/05/27 01:17:23;;;;;;;5.91;1.81;;;;;;;;;;342566;152;859096;-63
2022/05/27 01:20:18;;;;;;;6.02;1.62;;;;;;;;;;346909;152;857682;-65
2022/05/27 01:21:10;;;;;;;2.53;1.38;;;;;;;;;;345168;152;856677;-64
2022/05/27 01:22:17;;;;;;;4.17;1.72;;;;;;;;;;347854;152;857396;-63
2022/05/27 01:23:23;;;;;;;4.51;1.79;;;;;;;;;;346961;152;857296;-63
2022/05/27 01:24:36;;;;;;;4.18;1.25;;;;;;;;;;346175;152;859190;-64
2022/05/27 01:25:56;;;;;;;3.32;1.61;;;;;;;;;;347754;152;858044;-63
2022/05/27 01:27:03;;;;;;;2.18;1.74;;;;;;;;;;344756;152;859800;-62
2022/05/27 01:28:06;;;;;;;3.68;1.76;;;;;;;;;;348041;152;858029;-63
2022/05/27 01:29:19;;;;;;;2.73;1.31;;;;;;;;;;348129;152;857244;-64
2022/05/27 01:30:22;;;;;;;1.65;1.46;;;;;;;;;;346592;152;857374;-64
2022/05/27 01:31:26;;;;;;;3.22;1.57;;;;;;;;;;348562;152;857218;-63
2022/05/27 01:32:32;;;;;;;2.75;1.69;;;;;;;;;;342447;152;857496;-64
2022/05/27 01:33:44;;;;;;;5.84;1.49;;;;;;;;;;346680;152;858242;-64
2022/05/27 01:35:00;;;;;;;4.57;1.57;;;;;;;;;;346941;149;857868;-63
2022/05/27 01:36:06;;;;;;;3.34;1.54;;;;;;;;;;347794;152;857369;-63
2022/05/27 01:37:19;;;;;;;4.56;1.57;;;;;;;;;;346738;152;858225;-64
2022/05/27 01:38:41;;;;;;;4.57;1.68;;;;;;;;;;345670;152;857285;-64
2022/05/27 01:39:45;;;;;;;3.21;1.93;;;;;;;;;;349158;152;859360;-65
2022/05/27 01:40:54;;;;;;;3.52;1.59;;;;;;;;;;347342;152;859534;-64
2022/05/27 01:42:01;;;;;;;2.23;1.51;;;;;;;;;;346771;152;857416;-65
2022/05/27 01:43:05;;;;;;;2.47;1.44;;;;;;;;;;346614;152;857186;-65
2022/05/27 01:44:24;;;;;;;3.96;1.55;;;;;;;;;;347750;152;858806;-65
2022/05/27 01:45:28;;;;;;;3.51;1.51;;;;;;;;;;346090;152;858367;-64
2022/05/27 01:46:32;;;;;;;2.84;1.54;;;;;;;;;;347133;152;857801;-63
2022/05/27 01:47:38;;;;;;;3.18;1.67;;;;;;;;;;346134;152;862942;-64
2022/05/27 01:48:42;;;;;;;3.93;1.26;;;;;;;;;;348538;152;859545;-64
2022/05/27 01:49:45;;;;;;;4.99;2.02;;;;;;;;;;349272;152;858951;-63
2022/05/27 01:50:51;;;;;;;4.67;1.54;;;;;;;;;;350774;152;857088;-63
2022/05/27 01:52:12;;;;;;;2.09;1.33;;;;;;;;;;345864;152;857448;-64
2022/05/27 01:53:13;;;;;;;;;;;;;;;;;;349947;152;856713;-64
2022/05/27 01:54:19;;;;;;;7.97;1.59;;;;;;;;;;349035;152;857906;-64
2022/05/27 01:55:28;;;;;;;3.71;1.42;;;;;;;;;;346939;152;857272;-65
2022/05/27 01:56:37;;;;;;;3.46;1.28;;;;;;;;;;345029;152;858975;-65
2022/05/27 01:57:40;;;;;;;3.59;1.80;;;;;;;;;;345940;152;857239;-64
2022/05/27 01:58:50;;;;;;;3.08;1.35;;;;;;;;;;347138;152;857490;-64
2022/05/27 01:59:59;;;;;;;4.02;1.50;;;;;;;;;;348052;152;865396;-64
2022/05/27 02:01:01;;;;;;;1.82;1.39;;;;;;;;;;346080;152;858053;-62
2022/05/27 02:02:07;;;;;;;4.01;1.37;;;;;;;;;;346724;152;857354;-64
2022/05/27 02:03:25;;;;;;;3.08;1.52;;;;;;;;;;349473;152;862993;-63
2022/05/27 02:04:29;;;;;;;3.76;1.63;;;;;;;;;;346025;150;857246;-64
2022/05/27 02:05:33;;;;;;;3.05;1.42;;;;;;;;;;345986;152;857235;-63
2022/05/27 02:06:39;;;;;;;3.09;1.37;;;;;;;;;;349601;152;857844;-63
2022/05/27 02:08:00;;;;;;;4.09;1.40;;;;;;;;;;347062;152;864458;-62
2022/05/27 02:09:04;;;;;;;2.12;1.47;;;;;;;;;;347411;152;857322;-60
2022/05/27 02:10:09;;;;;;;1.67;1.39;;;;;;;;;;346584;152;859065;-62
2022/05/27 02:11:11;;;;;;;2.52;1.30;;;;;;;;;;347110;152;857065;-63
2022/05/27 02:12:15;;;;;;;2.64;1.80;;;;;;;;;;348731;152;866775;-63
2022/05/27 02:13:21;;;;;;;2.51;1.49;;;;;;;;;;348530;152;866523;-63
2022/05/27 02:14:28;;;;;;;2.20;1.42;;;;;;;;;;349743;152;857267;-63
2022/05/27 02:15:34;;;;;;;4.06;1.44;;;;;;;;;;339283;152;859310;-63
2022/05/27 02:16:37;;;;;;;5.23;1.66;;;;;;;;;;347045;152;859864;-65
2022/05/27 02:17:40;;;;;;;4.31;1.20;;;;;;;;;;345867;152;858945;-62
2022/05/27 02:18:44;;;;;;;4.02;1.41;;;;;;;;;;345972;152;864540;-63
2022/05/27 02:19:53;;;;;;;1.82;1.24;;;;;;;;;;345622;152;858482;-63
2022/05/27 02:20:57;;;;;;;2.91;1.29;;;;;;;;;;344909;152;857265;-63
2022/05/27 02:22:00;;;;;;;2.09;1.37;;;;;;;;;;348420;152;857869;-65
2022/05/27 02:23:03;;;;;;;3.23;1.45;;;;;;;;;;346560;152;860066;-63
2022/05/27 02:24:11;;;;;;;4.59;1.37;;;;;;;;;;346641;152;859820;-63
2022/05/27 02:25:18;;;;;;;2.94;1.32;;;;;;;;;;344994;152;858979;-63
2022/05/27 02:26:21;;;;;;;2.15;1.26;;;;;;;;;;346713;152;859168;-64
2022/05/27 02:27:27;;;;;;;2.66;1.22;;;;;;;;;;346929;152;858855;-63
2022/05/27 02:28:30;;;;;;;4.96;1.48;;;;;;;;;;346918;152;857737;-63
2022/05/27 02:29:31;;;;;;;2.09;1.47;;;;;;;;;;345885;152;860332;-62
2022/05/27 02:30:33;;;;;;;2.45;1.34;;;;;;;;;;347996;152;857861;-63
2022/05/27 02:31:35;;;;;;;2.85;1.29;;;;;;;;;;348402;152;864913;-64
2022/05/27 02:32:47;;;;;;;2.35;1.39;;;;;;;;;;346397;152;864856;-63
2022/05/27 02:35:21;;;;;;;4.86;1.47;;;;;;;;;;345883;152;857960;-64
2022/05/27 02:36:25;;;;;;;1.86;1.33;;;;;;;;;;348872;152;859806;-63
2022/05/27 02:37:30;;;;;;;2.74;1.27;;;;;;;;;;347056;152;858937;-63
2022/05/27 02:38:32;;;;;;;1.95;1.10;;;;;;;;;;347879;152;857707;-64
2022/05/27 02:39:33;;;;;;;4.48;1.50;;;;;;;;;;345734;152;859247;-61
2022/05/27 02:40:37;;;;;;;3.12;1.41;;;;;;;;;;349204;152;857871;-63
2022/05/27 02:41:47;;;;;;;2.02;1.15;;;;;;;;;;343276;152;864502;-63
2022/05/27 02:42:53;;;;;;;5.27;1.21;;;;;;;;;;345590;152;858089;-63
2022/05/27 02:44:13;;;;;;;4.36;1.39;;;;;;;;;;346318;152;860674;-63
2022/05/27 02:45:17;;;;;;;4.52;1.43;;;;;;;;;;347536;152;857383;-63
2022/05/27 02:46:28;;;;;;;4.58;1.48;;;;;;;;;;345272;152;857269;-63
2022/05/27 02:47:47;;;;;;;2.81;1.28;;;;;;;;;;349068;152;857220;-64
2022/05/27 02:49:07;;;;;;;1.72;1.38;;;;;;;;;;348411;152;857185;-64
2022/05/27 02:50:25;;;;;;;3.56;1.24;;;;;;;;;;345898;152;858677;-63
2022/05/27 02:51:37;;;;;;;4.27;1.34;;;;;;;;;;346757;152;858893;-63
2022/05/27 02:52:43;;;;;;;1.84;1.35;;;;;;;;;;348167;149;857584;-64
2022/05/27 02:54:03;;;;;;;1.78;1.44;;;;;;;;;;345196;152;857329;-63
2022/05/27 02:55:12;;;;;;;2.72;1.50;;;;;;;;;;349525;152;859043;-66
2022/05/27 02:56:17;;;;;;;3.54;1.14;;;;;;;;;;347481;152;857319;-63
2022/05/27 02:57:23;;;;;;;6.49;1.12;;;;;;;;;;346983;152;857816;-62
2022/05/27 02:58:25;;;;;;;2.72;1.38;;;;;;;;;;347037;152;865024;-63
2022/05/27 02:59:26;;;;;;;3.81;1.45;;;;;;;;;;346965;152;857244;-63
2022/05/27 03:00:29;;;;;;;2.49;1.40;;;;;;;;;;346817;152;858664;-63
2022/05/27 03:01:31;;;;;;;3.05;1.33;;;;;;;;;;348942;152;857695;-64
2022/05/27 03:02:32;;;;;;;1.41;1.22;;;;;;;;;;348234;152;865365;-63
2022/05/27 03:03:34;;;;;;;4.71;1.40;;;;;;;;;;347654;152;856095;-66
2022/05/27 03:04:35;;;;;;;3.53;1.23;;;;;;;;;;347959;152;856205;-62
2022/05/27 03:05:56;;;;;;;3.61;1.29;;;;;;;;;;347418;149;856702;-61
2022/05/27 03:07:17;;;;;;;3.22;1.38;;;;;;;15.41;94.67;47175.95;349381;152;863682;-62
2022/05/27 03:08:20;;;;;;;3.52;1.17;;;;;;;;;;346853;152;856918;-64
2022/05/27 03:09:26;;;;;;;1.81;1.04;;;;;;;;;;347039;152;857166;-60
2022/05/27 03:10:33;;;;;;;2.39;1.25;;;;;;;;;;348120;152;856230;-63
2022/05/27 03:11:42;;;;;;;1.76;1.13;;;;;;;;;;347031;152;856179;-61
2022/05/27 03:12:46;;;;;;;2.10;1.40;;;;;;;;;;348004;152;856242;-62
2022/05/27 03:13:53;;;;;;;3.24;1.21;;;;;;;;;;346932;152;856423;-61
2022/05/27 03:14:57;;;;;;;4.18;1.37;;;;;;;;;;347039;152;856304;-63
2022/05/27 03:16:01;;;;;;;2.29;1.46;;;;;;;;;;344721;152;856493;-62
2022/05/27 03:17:21;;;;;;;6.19;2.24;;;;;;;;;;348047;152;856761;-61
2022/05/27 03:18:24;;;;;;;2.31;1.36;;;;;;;;;;344474;152;856209;-62
2022/05/27 03:19:45;;;;;;;2.86;1.29;;;;;;;;;;347274;152;864158;-61
2022/05/27 03:20:48;;;;;;;1.55;1.24;;;;;;;;;;347450;152;858130;-62
2022/05/27 03:22:08;;;;;;;3.24;1.20;;;;;;;;;;346957;152;857332;-61
2022/05/27 03:23:31;;;;;;;5.25;1.68;;;;;;;;;;348177;152;857293;-63
2022/05/27 03:24:43;;;;;;;2.84;1.63;;;;;;;;;;350807;150;857290;-61
2022/05/27 03:25:56;;;;;;;2.75;1.18;;;;;;;;;;348435;151;858692;-65
2022/05/27 03:27:06;;;;;;;2.59;1.37;;;;;;;;;;345142;153;857241;-62
2022/05/27 03:28:22;;;;;;;6.89;2.01;;;;;;;;;;352040;150;857658;-63
2022/05/27 03:29:34;;;;;;;3.66;2.38;;;;;;;;;;349792;151;866610;-63
2022/05/27 03:30:44;;;;;;;4.18;1.58;;;;;;;;;;343826;151;858764;-64
2022/05/27 03:31:47;;;;;;;2.83;1.45;;;;;;;;;;351597;150;857187;-63
2022/05/27 03:32:56;;;;;;;2.51;1.29;;;;;;;;;;343646;153;858674;-63
2022/05/27 03:34:00;;;;;;;3.23;1.37;;;;;;;;;;338831;156;857238;-63
2022/05/27 03:35:09;;;;;;;3.53;1.35;;;;;;;;;;339354;153;857326;-64
2022/05/27 03:36:28;;;;;;;1.81;1.36;;;;;;;;;;347559;154;858169;-64
2022/05/27 03:37:34;;;;;;;1.86;1.26;;;;;;;;;;332250;159;858289;-62
2022/05/27 03:38:36;;;;;;;2.74;1.39;;;;;;;;;;330861;159;857325;-61
2022/05/27 03:39:40;;;;;;;1.65;1.18;;;;;;;;;;332659;159;857267;-62
2022/05/27 03:40:55;;;;;;;3.09;1.42;;;;;;;;;;348704;150;857275;-69
2022/05/27 03:42:01;;;;;;;3.66;1.49;;;;;;;;;;350075;151;857222;-59
2022/05/27 03:43:03;;;;;;;1.73;1.29;;;;;;;;;;343872;154;857763;-62
2022/05/27 03:44:06;;;;;;;2.74;1.26;;;;;;;;;;345700;151;857198;-61
2022/05/27 03:45:09;;;;;;;3.43;1.17;;;;;;;;;;351125;150;859050;-62
2022/05/27 03:46:12;;;;;;;4.72;1.56;;;;;;;;;;344399;154;865459;-64
2022/05/27 03:47:14;;;;;;;2.52;1.26;;;;;;;;;;344190;153;858514;-63
2022/05/27 03:48:16;;;;;;;5.31;1.76;;;;;;;;;;344231;154;863672;-63
2022/05/27 03:49:17;;;;;;;3.46;1.49;;;;;;;;;;351011;150;866551;-64
2022/05/27 03:50:21;;;;;;;1.49;0.95;;;;;;;;;;344107;154;859022;-63
2022/05/27 03:51:24;;;;;;;3.91;1.24;;;;;;;;;;344334;153;865457;-62
2022/05/27 03:52:25;;;;;;;6.20;1.46;;;;;;;;;;344489;154;858105;-64
2022/05/27 03:54:47;;;;;;;4.07;1.74;;;;;;;;;;349598;151;857107;-63
2022/05/27 03:55:48;;;;;;;3.47;1.64;;;;;;;;;;344908;153;857212;-62
2022/05/27 03:56:50;;;;;;;1.99;1.43;;;;;;;;;;344637;153;861809;-60
2022/05/27 03:57:52;;;;;;;2.89;1.43;;;;;;;;;;343463;153;866293;-60
2022/05/27 03:58:53;;;;;;;2.31;1.41;;;;;;;;;;350178;150;866461;-63
2022/05/27 03:59:55;;;;;;;2.34;1.46;;;;;;;;;;344765;153;859696;-63
2022/05/27 04:00:56;;;;;;;5.33;1.51;;;;;;;;;;350299;151;858961;-60
2022/05/27 04:01:58;;;;;;;4.63;1.32;;;;;;;;;;344528;153;864799;-61
2022/05/27 04:02:59;;;;;;;2.19;1.16;;;;;;;;;;343282;153;857732;-62
2022/05/27 04:04:02;;;;;;;2.35;1.25;;;;;;;;;;344198;153;857622;-61
2022/05/27 04:05:04;;;;;;;4.86;1.52;;;;;;;;;;341673;153;857126;-62
2022/05/27 04:06:06;;;;;;;2.39;1.67;;;;;;;;;;345248;153;857795;-61
2022/05/27 04:07:08;;;;;;;2.06;1.49;;;;;;;;;;344592;153;858852;-64
2022/05/27 04:08:10;;;;;;;3.54;1.57;;;;;;;;;;343964;154;864149;-61
2022/05/27 04:09:12;;;;;;;5.97;1.91;;;;;;;;;;343501;154;859370;-62
2022/05/27 04:10:15;;;;;;;1.54;1.34;;;;;;;;;;347539;152;858518;-63
2022/05/27 04:11:17;;;;;;;2.64;1.71;;;;;;;;;;349019;152;858282;-63
2022/05/27 04:12:19;;;;;;;1.59;1.28;;;;;;;;;;347688;149;858352;-62
2022/05/27 04:13:20;;;;;;;2.33;1.41;;;;;;;;;;346698;152;857222;-62
2022/05/27 04:14:22;;;;;;;4.14;1.56;;;;;;;;;;347282;152;857177;-60
2022/05/27 04:15:24;;;;;;;3.34;1.31;;;;;;;;;;347946;152;855842;-64
2022/05/27 04:16:25;;;;;;;1.65;1.26;;;;;;;;;;347729;152;866297;-62
2022/05/27 04:17:30;;;;;;;2.60;1.60;;;;;;;;;;347447;152;865735;-62
2022/05/27 04:18:32;;;;;;;4.53;1.35;;;;;;;;;;347466;152;856344;-60
2022/05/27 04:19:33;;;;;;;2.49;1.54;;;;;;;;;;347875;152;865980;-59
2022/05/27 04:20:35;;;;;;;2.82;1.69;;;;;;;;;;348498;152;865153;-62
2022/05/27 04:21:37;;;;;;;6.24;1.44;;;;;;;;;;348888;152;856854;-61
2022/05/27 04:22:39;;;;;;;4.45;1.48;;;;;;;;;;347027;152;863656;-64
2022/05/27 04:23:40;;;;;;;2.63;1.69;;;;;;;;;;348014;152;856299;-60
2022/05/27 04:24:42;;;;;;;4.38;1.52;;;;;;;;;;347807;152;858585;-63
2022/05/27 04:25:47;;;;;;;7.99;1.41;;;;;;;;;;349706;152;860197;-65
2022/05/27 04:26:49;;;;;;;4.25;1.62;;;;;;;;;;347449;152;857379;-67
2022/05/27 04:27:50;;;;;;;5.97;1.66;;;;;;;;;;347624;152;858705;-65
2022/05/27 04:28:52;;;;;;;2.79;1.63;;;;;;;;;;347219;152;861001;-64
2022/05/27 04:29:54;;;;;;;4.09;1.28;;;;;;;;;;347605;152;859083;-64
2022/05/27 04:30:56;;;;;;;2.79;1.73;;;;;;;;;;347416;152;856483;-61
2022/05/27 04:31:58;;;;;;;7.26;1.56;;;;;;;;;;347777;152;858938;-63
2022/05/27 04:32:59;;;;;;;3.08;1.97;;;;;;;;;;347757;152;859158;-61
2022/05/27 04:34:03;;;;;;;6.79;1.64;;;;;;;;;;347882;152;857193;-61
2022/05/27 04:35:04;;;;;;;3.11;1.88;;;;;;;;;;348211;152;856731;-58
2022/05/27 04:36:07;;;;;;;2.29;1.39;;;;;;;;;;348015;152;856251;-56
2022/05/27 04:37:09;;;;;;;5.14;1.60;;;;;;;;;;348182;152;857253;-58
2022/05/27 04:38:10;;;;;;;3.25;1.17;;;;;;;;;;347886;152;863679;-59
2022/05/27 04:39:13;;;;;;;2.44;1.26;;;;;;;;;;348230;152;856279;-57
2022/05/27 04:40:14;;;;;;;2.64;1.48;;;;;;;;;;347755;152;856375;-59
2022/05/27 04:41:16;;;;;;;1.26;1.13;;;;;;;;;;348062;149;856420;-58
2022/05/27 04:42:18;;;;;;;4.70;1.40;;;;;;;;;;348063;152;864467;-60
2022/05/27 04:43:19;;;;;;;4.21;1.41;;;;;;;;;;348374;152;856359;-59
2022/05/27 04:44:21;;;;;;;2.29;1.44;;;;;;;;;;342127;155;856183;-60
2022/05/27 04:45:23;;;;;;;1.73;1.11;;;;;;;;;;341356;155;856346;-64
2022/05/27 04:46:24;;;;;;;6.08;1.44;;;;;;;;;;349243;152;856205;-59
2022/05/27 04:47:26;;;;;;;3.36;1.39;;;;;;;;;;347546;152;864138;-60
2022/05/27 04:48:27;;;;;;;1.70;1.16;;;;;;;;;;349729;152;856922;-59
2022/05/27 04:50:50;;;;;;;4.24;1.62;;;;;;;;;;347533;152;863815;-58
2022/05/27 04:51:52;;;;;;;2.54;1.11;;;;;;;;;;341997;155;863292;-58
2022/05/27 04:52:53;;;;;;;1.73;1.20;;;;;;;;;;342436;152;856593;-61
2022/05/27 04:53:55;;;;;;;3.04;1.19;;;;;;;;;;348595;152;856472;-59
2022/05/27 04:54:57;;;;;;;2.32;1.12;;;;;;;;;;347686;152;856284;-59
2022/05/27 04:55:59;;;;;;;5.52;1.19;;;;;;;;;;348130;152;856742;-59
2022/05/27 04:57:00;;;;;;;2.88;1.20;;;;;;;;;;349508;152;856195;-59
2022/05/27 04:58:02;;;;;;;2.41;1.21;;;;;;;;;;347854;152;856165;-59
2022/05/27 04:59:03;;;;;;;3.06;1.20;;;;;;;;;;347866;152;856254;-59
2022/05/27 05:00:07;;;;;;;3.64;1.24;;;;;;;;;;347965;152;863273;-59
2022/05/27 05:01:08;;;;;;;3.72;1.10;;;;;;;;;;345756;152;863406;-60
2022/05/27 05:02:10;;;;;;;1.42;1.08;;;;;;;;;;347663;152;856428;-60
2022/05/27 05:03:11;;;;;;;5.32;1.26;;;;;;;;;;347823;152;857229;-59
2022/05/27 05:04:13;;;;;;;2.09;1.05;;;;;;;;;;341351;152;857035;-59
2022/05/27 05:05:15;;;;;;;1.50;0.87;;;;;;;;;;340371;152;864031;-60
2022/05/27 05:06:17;;;;;;;2.66;1.11;;;;;;;;;;349931;152;856321;-59
2022/05/27 05:07:19;;;;;;;1.70;1.16;;;;;;;;;;347751;152;856796;-59
2022/05/27 05:08:33;;;;;;;2.14;1.05;;;;;;;;;;347463;152;856325;-60
2022/05/27 05:09:35;;;;;;;0.76;0.58;;;;;;;;;;348220;152;856636;-60
2022/05/27 05:10:38;;;;;;;1.27;0.79;;;;;;;;;;346775;152;856791;-59
2022/05/27 05:11:39;;;;;;;2.39;0.95;;;;;;;;;;341923;154;864779;-59
2022/05/27 05:12:41;;;;;;;3.95;0.91;;;;;;;;;;342655;154;857141;-60
2022/05/27 05:13:42;;;;;;;2.30;1.02;;;;;;;;;;342977;154;865308;-58
2022/05/27 05:14:44;;;;;;;4.09;0.91;;;;;;;;;;342096;154;859016;-58
2022/05/27 05:15:46;;;;;;;3.39;1.04;;;;;;;;;;342894;154;857423;-59
2022/05/27 05:16:47;;;;;;;6.98;1.76;;;;;;;;;;342486;154;859725;-60
2022/05/27 05:17:49;;;;;;;2.76;0.99;;;;;;;;;;342308;154;857357;-60
2022/05/27 05:18:50;;;;;;;2.82;1.17;;;;;;;;;;336257;157;859109;-60
2022/05/27 05:19:56;;;;;;;4.22;1.29;;;;;;;;;;336250;157;859203;-60
2022/05/27 05:20:58;;;;;;;2.44;1.11;;;;;;;;;;341745;154;864764;-59
2022/05/27 05:21:59;;;;;;;1.56;1.04;;;;;;;;;;342126;154;858025;-56
2022/05/27 05:23:01;;;;;;;3.86;1.20;;;;;;;;;;342154;154;856417;-59
2022/05/27 05:24:03;;;;;;;1.14;0.86;;;;;;;;;;336466;157;863445;-58
2022/05/27 05:25:05;;;;;;;2.61;1.21;;;;;;;;;;336466;157;856214;-59
2022/05/27 05:26:07;;;;;;;2.21;0.95;;;;;;;;;;341807;154;857406;-59
2022/05/27 05:27:08;;;;;;;1.56;0.87;;;;;;;;;;342133;154;857407;-61
2022/05/27 05:28:10;;;;;;;3.14;1.09;;;;;;;;;;339126;154;856475;-60
2022/05/27 05:29:12;;;;;;;2.03;0.99;;;;;;;;;;342188;154;857384;-60
2022/05/27 05:30:15;;;;;;;2.13;1.05;;;;;;;;;;342207;154;859105;-59
2022/05/27 05:31:16;;;;;;;2.13;0.89;;;;;;;;;;341994;154;865009;-60
2022/05/27 05:32:18;;;;;;;1.67;0.90;;;;;;;;;;342427;154;856589;-59
2022/05/27 05:33:20;;;;;;;3.16;1.00;;;;;;;;;;342128;154;857310;-59
2022/05/27 05:34:21;;;;;;;1.68;0.76;;;;;;;;;;341953;154;865929;-58
2022/05/27 05:35:23;;;;;;;2.16;0.84;;;;;;;;;;342144;154;858839;-58
2022/05/27 05:36:24;;;;;;;4.38;0.99;;;;;;;;;;342258;154;858602;-58
2022/05/27 05:37:26;;;;;;;2.94;0.94;;;;;;;;;;342336;154;866744;-58
2022/05/27 05:38:28;;;;;;;2.83;0.94;;;;;;;;;;342294;154;857244;-59
2022/05/27 05:39:32;;;;;;;2.00;0.80;;;;;;;;;;342464;154;857803;-58
2022/05/27 05:40:34;;;;;;;1.80;0.94;;;;;;;;;;342239;154;864876;-60
2022/05/27 05:41:37;;;;;;;3.87;1.29;;;;;;;;;;342494;154;857808;-58
2022/05/27 05:42:39;;;;;;;0.98;0.78;;;;;;;;;;342553;154;856148;-58
2022/05/27 05:43:41;;;;;;;2.89;0.94;;;;;;;;;;342631;154;856133;-58
2022/05/27 05:44:42;;;;;;;6.61;1.06;;;;;;;;;;342655;154;863634;-58
2022/05/27 05:45:44;;;;;;;6.41;0.97;;;;;;;;;;342685;154;856131;-58
2022/05/27 05:46:48;;;;;;;2.32;0.91;;;;;;;;;;342747;154;856221;-58
2022/05/27 05:47:49;;;;;;;1.53;0.84;;;;;;;;;;342543;154;864195;-59
2022/05/27 05:48:50;;;;;;;0.94;0.80;;;;;;;;;;340788;154;856166;-59
2022/05/27 05:49:52;;;;;;;3.70;0.66;;;;;;;;;;342662;154;856255;-59
2022/05/27 05:50:53;;;;;;;2.71;0.87;;;;;;;;;;341874;154;856265;-58
2022/05/27 05:53:54;;;;;;;3.27;0.83;;;;;;;17.69;51.16;99625.67;373107;142;878732;-58
2022/05/27 05:54:56;;;;;;;4.73;0.80;;;;;;;17.69;51.16;99625.67;367930;144;858616;-58
2022/05/27 05:55:59;;;;;;;3.45;0.77;;;;;;;17.80;50.54;99620.83;367204;144;864602;-59
2022/05/27 05:57:02;;;;;;;1.73;0.77;;;;;;;17.84;50.85;99616.32;366231;144;858105;-61
2022/05/27 05:58:04;;;;;;;2.92;1.03;;;;;;;17.94;50.55;99612.37;366462;144;857175;-60
2022/05/27 05:59:05;;;;;;;2.67;0.81;;;;;;;17.86;49.67;99612.70;367010;144;857689;-59
2022/05/27 06:00:11;;;;;;;3.62;0.77;;;;;;;17.92;49.18;99609.81;370835;144;857334;-59
2022/05/27 06:01:12;;;;;;;1.62;0.95;;;;;;;;;;368456;144;857364;-60
2022/05/27 06:02:14;;;;;;;2.21;0.91;;;;;;;;;;366524;144;857326;-57
2022/05/27 06:03:16;;;;;;;2.76;1.09;;;;;;;;;;366360;144;859620;-58
2022/05/27 06:04:17;;;;;;;2.72;0.83;;;;;;;;;;367338;144;858774;-59
2022/05/27 06:05:19;;;;;;;3.69;0.67;;;;;;;;;;367218;144;858903;-58
2022/05/27 06:06:21;;;;;;;1.97;0.82;;;;;;;;;;366519;144;864919;-59
2022/05/27 06:07:22;;;;;;;2.91;1.06;;;;;;;;;;366578;144;858153;-59
2022/05/27 06:08:24;;;;;;;2.94;0.79;;;;;;;;;;367251;144;857355;-59
2022/05/27 06:09:25;;;;;;;1.88;0.82;;;;;;;;;;366984;144;859117;-60
2022/05/27 06:10:27;;;;;;;1.84;0.80;;;;;;;;;;366803;144;859475;-59
2022/05/27 06:11:29;;;;;;;1.39;0.68;;;;;;;;;;366203;144;860040;-58
2022/05/27 06:12:32;;;;;;;1.11;0.80;;;;;;;;;;364729;146;864893;-59
2022/05/27 06:13:35;;;;;;;3.92;0.94;;;;;;;;;;362687;147;859104;-58
2022/05/27 06:14:37;;;;;;;2.72;0.77;;;;;;;;;;361835;147;857951;-59
2022/05/27 06:15:39;;;;;;;3.24;1.03;;;;;;;;;;361942;147;857335;-59
2022/05/27 06:16:41;;;;;;;1.67;0.87;;;;;;;;;;363781;147;857249;-58
2022/05/27 06:17:42;;;;;;;2.55;0.72;;;;;;;;;;362927;147;858867;-59
2022/05/27 06:18:46;;;;;;;4.41;0.86;;;;;;;;;;361999;147;866213;-59
2022/05/27 06:19:48;;;;;;;3.26;1.15;;;;;;;;;;361696;147;865566;-59
2022/05/27 06:20:52;;;;;;;3.96;0.92;;;;;;;;;;362845;147;858183;-58
2022/05/27 06:21:56;;;;;;;2.84;0.97;;;;;;;;;;355076;148;857489;-59
2022/05/27 06:22:59;;;;;;;4.04;0.99;;;;;;;;;;356619;147;865383;-59
2022/05/27 06:24:01;;;;;;;4.79;1.07;;;;;;;;;;358113;145;865255;-59
2022/05/27 06:25:02;;;;;;;2.29;0.70;;;;;;;;;;362010;146;858848;-59
2022/05/27 06:26:08;;;;;;;2.63;0.88;;;;;;;;;;358962;147;860087;-59